Terminal Aerodrome Forecast
Issued by NWS

Home | Current Version | Previous Version | Text Only | Print | Product List | Glossary On
Versions: 1 2 3 4 5 6 7 8 9 10 11 12 13 14 15 16 17 18
000
FTUS43 KEAX 200954 AAA
TAFMKC
TAF AMD
KMKC 200954Z 2010/2106 20006KT P6SM VCTS SCT050CB BKN100
      TEMPO 2010/2012 33025G35KT 6SM -TSRA SCT030CB BKN050
     FM201400 16011KT P6SM SCT100 BKN200
     FM201900 18011KT P6SM SCT050 SCT200=

USA.gov is the U.S. government's official web portal to all federal, state and local government web resources and services.